sensor_id;sensor_type;location;lat;lon;timestamp;pressure;altitude;pressure_sealevel;temperature;humidity
55010;BME280;40903;51.638;7.528;2024-02-26T00:01:27;99411.47;;;4.77;100.00
55010;BME280;40903;51.638;7.528;2024-02-26T00:03:53;99424.91;;;4.82;100.00
55010;BME280;40903;51.638;7.528;2024-02-26T00:06:19;99421.13;;;4.83;100.00
55010;BME280;40903;51.638;7.528;2024-02-26T00:08:45;99416.22;;;4.85;100.00
55010;BME280;40903;51.638;7.528;2024-02-26T00:11:10;99417.00;;;4.91;100.00
55010;BME280;40903;51.638;7.528;2024-02-26T00:13:36;99411.84;;;4.94;100.00
55010;BME280;40903;51.638;7.528;2024-02-26T00:16:03;99420.69;;;5.00;100.00
55010;BME280;40903;51.638;7.528;2024-02-26T00:18:28;99401.22;;;5.03;100.00
55010;BME280;40903;51.638;7.528;2024-02-26T00:20:54;99409.84;;;5.05;100.00
55010;BME280;40903;51.638;7.528;2024-02-26T00:23:19;99403.63;;;5.04;100.00
55010;BME280;40903;51.638;7.528;2024-02-26T00:25:45;99397.16;;;5.05;100.00
55010;BME280;40903;51.638;7.528;2024-02-26T00:28:10;99398.69;;;5.11;100.00
55010;BME280;40903;51.638;7.528;2024-02-26T00:30:38;99400.22;;;5.17;100.00
55010;BME280;40903;51.638;7.528;2024-02-26T00:33:03;99399.13;;;5.18;100.00
55010;BME280;40903;51.638;7.528;2024-02-26T00:35:29;99401.84;;;5.18;100.00
55010;BME280;40903;51.638;7.528;2024-02-26T00:37:54;99400.94;;;5.28;100.00
55010;BME280;40903;51.638;7.528;2024-02-26T00:40:20;99394.72;;;5.27;100.00
55010;BME280;40903;51.638;7.528;2024-02-26T00:42:45;99393.03;;;5.31;100.00
55010;BME280;40903;51.638;7.528;2024-02-26T00:45:12;99390.13;;;5.28;100.00
55010;BME280;40903;51.638;7.528;2024-02-26T00:47:37;99392.53;;;5.29;100.00
55010;BME280;40903;51.638;7.528;2024-02-26T00:50:06;99386.50;;;5.37;100.00
55010;BME280;40903;51.638;7.528;2024-02-26T00:52:32;99387.88;;;5.35;100.00
55010;BME280;40903;51.638;7.528;2024-02-26T00:54:57;99399.19;;;5.37;100.00
55010;BME280;40903;51.638;7.528;2024-02-26T00:57:23;99397.31;;;5.37;100.00
55010;BME280;40903;51.638;7.528;2024-02-26T00:59:48;99397.59;;;5.36;100.00
55010;BME280;40903;51.638;7.528;2024-02-26T01:02:15;99400.03;;;5.37;100.00
55010;BME280;40903;51.638;7.528;2024-02-26T01:04:41;99391.91;;;5.37;100.00
55010;BME280;40903;51.638;7.528;2024-02-26T01:07:06;99393.22;;;5.40;100.00
55010;BME280;40903;51.638;7.528;2024-02-26T01:09:32;99385.66;;;5.42;100.00
55010;BME280;40903;51.638;7.528;2024-02-26T01:11:57;99378.78;;;5.49;100.00
55010;BME280;40903;51.638;7.528;2024-02-26T01:14:23;99393.91;;;5.50;100.00
55010;BME280;40903;51.638;7.528;2024-02-26T01:16:48;99391.22;;;5.50;100.00
55010;BME280;40903;51.638;7.528;2024-02-26T01:19:14;99387.97;;;5.48;100.00
55010;BME280;40903;51.638;7.528;2024-02-26T01:21:40;99380.59;;;5.54;100.00
55010;BME280;40903;51.638;7.528;2024-02-26T01:24:06;99381.13;;;5.56;100.00
55010;BME280;40903;51.638;7.528;2024-02-26T01:26:32;99386.53;;;5.56;100.00
55010;BME280;40903;51.638;7.528;2024-02-26T01:28:57;99391.56;;;5.62;100.00
55010;BME280;40903;51.638;7.528;2024-02-26T01:31:23;99388.16;;;5.57;100.00
55010;BME280;40903;51.638;7.528;2024-02-26T01:33:49;99398.38;;;5.60;100.00
55010;BME280;40903;51.638;7.528;2024-02-26T01:36:14;99399.75;;;5.57;100.00
55010;BME280;40903;51.638;7.528;2024-02-26T01:38:40;99402.47;;;5.57;100.00
55010;BME280;40903;51.638;7.528;2024-02-26T01:41:05;99394.59;;;5.61;100.00
55010;BME280;40903;51.638;7.528;2024-02-26T01:43:31;99406.69;;;5.63;100.00
55010;BME280;40903;51.638;7.528;2024-02-26T01:45:57;99407.25;;;5.65;100.00
55010;BME280;40903;51.638;7.528;2024-02-26T01:48:23;99406.69;;;5.63;100.00
55010;BME280;40903;51.638;7.528;2024-02-26T01:50:49;99401.28;;;5.63;100.00
55010;BME280;40903;51.638;7.528;2024-02-26T01:53:15;99399.91;;;5.66;100.00
55010;BME280;40903;51.638;7.528;2024-02-26T01:55:41;99399.69;;;5.62;100.00
55010;BME280;40903;51.638;7.528;2024-02-26T01:58:07;99406.78;;;5.58;100.00
55010;BME280;40903;51.638;7.528;2024-02-26T02:00:34;99411.09;;;5.59;100.00
55010;BME280;40903;51.638;7.528;2024-02-26T02:03:01;99414.63;;;5.60;100.00
55010;BME280;40903;51.638;7.528;2024-02-26T02:05:28;99410.56;;;5.57;100.00
55010;BME280;40903;51.638;7.528;2024-02-26T02:07:54;99416.22;;;5.61;100.00
55010;BME280;40903;51.638;7.528;2024-02-26T02:10:19;99416.50;;;5.59;100.00
55010;BME280;40903;51.638;7.528;2024-02-26T02:12:48;99412.19;;;5.58;100.00
55010;BME280;40903;51.638;7.528;2024-02-26T02:15:14;99407.59;;;5.59;100.00
55010;BME280;40903;51.638;7.528;2024-02-26T02:17:40;99407.59;;;5.59;100.00
55010;BME280;40903;51.638;7.528;2024-02-26T02:20:10;99401.38;;;5.58;100.00
55010;BME280;40903;51.638;7.528;2024-02-26T02:22:40;99406.28;;;5.56;100.00
55010;BME280;40903;51.638;7.528;2024-02-26T02:25:06;99402.19;;;5.59;100.00
55010;BME280;40903;51.638;7.528;2024-02-26T02:27:32;99395.97;;;5.58;100.00
55010;BME280;40903;51.638;7.528;2024-02-26T02:29:58;99402.69;;;5.61;100.00
55010;BME280;40903;51.638;7.528;2024-02-26T02:32:25;99397.56;;;5.59;100.00
55010;BME280;40903;51.638;7.528;2024-02-26T02:34:50;99397.88;;;5.58;100.00
55010;BME280;40903;51.638;7.528;2024-02-26T02:37:16;99399.19;;;5.60;100.00
55010;BME280;40903;51.638;7.528;2024-02-26T02:39:42;99389.47;;;5.59;100.00
55010;BME280;40903;51.638;7.528;2024-02-26T02:42:08;99395.38;;;5.61;100.00
55010;BME280;40903;51.638;7.528;2024-02-26T02:44:34;99395.09;;;5.63;100.00
55010;BME280;40903;51.638;7.528;2024-02-26T02:47:00;99400.22;;;5.64;100.00
55010;BME280;40903;51.638;7.528;2024-02-26T02:55:53;99409.38;;;5.68;100.00
55010;BME280;40903;51.638;7.528;2024-02-26T02:58:18;99408.03;;;5.66;100.00
55010;BME280;40903;51.638;7.528;2024-02-26T03:00:49;99414.81;;;5.63;100.00
55010;BME280;40903;51.638;7.528;2024-02-26T03:03:15;99416.97;;;5.66;100.00
55010;BME280;40903;51.638;7.528;2024-02-26T03:05:40;99424.50;;;5.69;100.00
55010;BME280;40903;51.638;7.528;2024-02-26T03:08:06;99424.50;;;5.69;100.00
55010;BME280;40903;51.638;7.528;2024-02-26T03:10:32;99422.94;;;5.63;100.00
55010;BME280;40903;51.638;7.528;2024-02-26T03:12:57;99426.97;;;5.66;100.00
55010;BME280;40903;51.638;7.528;2024-02-26T03:15:23;99435.91;;;5.66;100.00
55010;BME280;40903;51.638;7.528;2024-02-26T03:17:48;99431.84;;;5.64;100.00
55010;BME280;40903;51.638;7.528;2024-02-26T03:20:14;99428.88;;;5.65;100.00
55010;BME280;40903;51.638;7.528;2024-02-26T03:22:39;99429.16;;;5.64;100.00
55010;BME280;40903;51.638;7.528;2024-02-26T03:25:06;99436.44;;;5.63;100.00
55010;BME280;40903;51.638;7.528;2024-02-26T03:27:32;99444.28;;;5.65;100.00
55010;BME280;40903;51.638;7.528;2024-02-26T03:29:57;99440.78;;;5.64;100.00
55010;BME280;40903;51.638;7.528;2024-02-26T03:32:23;99448.91;;;5.64;100.00
55010;BME280;40903;51.638;7.528;2024-02-26T03:34:49;99439.16;;;5.63;100.00
55010;BME280;40903;51.638;7.528;2024-02-26T03:37:14;99444.78;;;5.67;100.00
55010;BME280;40903;51.638;7.528;2024-02-26T03:39:40;99445.88;;;5.66;100.00
55010;BME280;40903;51.638;7.528;2024-02-26T03:42:06;99451.28;;;5.66;100.00
55010;BME280;40903;51.638;7.528;2024-02-26T03:44:31;99450.50;;;5.65;100.00
55010;BME280;40903;51.638;7.528;2024-02-26T03:46:57;99444.28;;;5.65;100.00
55010;BME280;40903;51.638;7.528;2024-02-26T03:49:23;99443.69;;;5.68;100.00
55010;BME280;40903;51.638;7.528;2024-02-26T03:51:48;99443.41;;;5.69;100.00
55010;BME280;40903;51.638;7.528;2024-02-26T03:54:14;99448.31;;;5.67;100.00
55010;BME280;40903;51.638;7.528;2024-02-26T03:56:40;99450.78;;;5.64;100.00
55010;BME280;40903;51.638;7.528;2024-02-26T03:59:05;99454.06;;;5.61;100.00
55010;BME280;40903;51.638;7.528;2024-02-26T04:01:31;99456.03;;;5.55;100.00
55010;BME280;40903;51.638;7.528;2024-02-26T04:03:56;99460.63;;;5.55;100.00
55010;BME280;40903;51.638;7.528;2024-02-26T04:06:22;99455.16;;;5.60;100.00
55010;BME280;40903;51.638;7.528;2024-02-26T04:08:51;99446.22;;;5.59;100.00
55010;BME280;40903;51.638;7.528;2024-02-26T04:11:16;99450.88;;;5.54;100.00
55010;BME280;40903;51.638;7.528;2024-02-26T04:13:44;99449.34;;;5.48;100.00
55010;BME280;40903;51.638;7.528;2024-02-26T04:16:15;99452.91;;;5.43;100.00
55010;BME280;40903;51.638;7.528;2024-02-26T04:18:42;99455.09;;;5.41;100.00
55010;BME280;40903;51.638;7.528;2024-02-26T04:21:07;99450.50;;;5.42;100.00
55010;BME280;40903;51.638;7.528;2024-02-26T04:23:33;99451.03;;;5.44;100.00
55010;BME280;40903;51.638;7.528;2024-02-26T04:26:01;99448.88;;;5.41;100.00
55010;BME280;40903;51.638;7.528;2024-02-26T04:28:26;99447.50;;;5.43;100.00
55010;BME280;40903;51.638;7.528;2024-02-26T04:30:54;99438.38;;;5.39;100.00
55010;BME280;40903;51.638;7.528;2024-02-26T04:33:20;99451.88;;;5.39;100.00
55010;BME280;40903;51.638;7.528;2024-02-26T04:35:45;99450.31;;;5.33;100.00
55010;BME280;40903;51.638;7.528;2024-02-26T04:38:11;99450.09;;;5.30;100.00
55010;BME280;40903;51.638;7.528;2024-02-26T04:40:36;99449.84;;;5.26;100.00
55010;BME280;40903;51.638;7.528;2024-02-26T04:43:02;99444.97;;;5.28;100.00
55010;BME280;40903;51.638;7.528;2024-02-26T04:45:27;99453.31;;;5.32;100.00
55010;BME280;40903;51.638;7.528;2024-02-26T04:47:53;99455.19;;;5.31;100.00
55010;BME280;40903;51.638;7.528;2024-02-26T04:50:18;99443.38;;;5.27;100.00
55010;BME280;40903;51.638;7.528;2024-02-26T04:52:43;99442.78;;;5.30;100.00
55010;BME280;40903;51.638;7.528;2024-02-26T04:55:09;99442.78;;;5.30;100.00
55010;BME280;40903;51.638;7.528;2024-02-26T04:57:34;99433.06;;;5.29;100.00
55010;BME280;40903;51.638;7.528;2024-02-26T05:00:00;99435.84;;;5.24;100.00
55010;BME280;40903;51.638;7.528;2024-02-26T05:02:25;99435.00;;;5.24;100.00
55010;BME280;40903;51.638;7.528;2024-02-26T05:04:51;99428.75;;;5.28;100.00
55010;BME280;40903;51.638;7.528;2024-02-26T05:07:16;99447.22;;;5.21;100.00
55010;BME280;40903;51.638;7.528;2024-02-26T05:09:44;99444.53;;;5.21;100.00
55010;BME280;40903;51.638;7.528;2024-02-26T05:12:10;99441.06;;;5.16;100.00
55010;BME280;40903;51.638;7.528;2024-02-26T05:14:35;99443.47;;;5.17;100.00
55010;BME280;40903;51.638;7.528;2024-02-26T05:17:01;99434.81;;;5.20;100.00
55010;BME280;40903;51.638;7.528;2024-02-26T05:19:26;99438.06;;;5.17;100.00
55010;BME280;40903;51.638;7.528;2024-02-26T05:21:53;99444.00;;;5.19;100.00
55010;BME280;40903;51.638;7.528;2024-02-26T05:24:18;99448.34;;;5.15;100.00
55010;BME280;40903;51.638;7.528;2024-02-26T05:26:47;99448.00;;;5.22;100.00
55010;BME280;40903;51.638;7.528;2024-02-26T05:29:13;99452.66;;;5.16;100.00
55010;BME280;40903;51.638;7.528;2024-02-26T05:31:38;99465.38;;;5.16;100.00
55010;BME280;40903;51.638;7.528;2024-02-26T05:34:04;99458.63;;;5.13;100.00
55010;BME280;40903;51.638;7.528;2024-02-26T05:36:29;99461.59;;;5.17;100.00
55010;BME280;40903;51.638;7.528;2024-02-26T05:38:59;99463.25;;;5.13;100.00
55010;BME280;40903;51.638;7.528;2024-02-26T05:41:25;99468.88;;;5.16;100.00
55010;BME280;40903;51.638;7.528;2024-02-26T05:43:52;99473.41;;;5.21;100.00
55010;BME280;40903;51.638;7.528;2024-02-26T05:46:18;99479.13;;;5.19;100.00
55010;BME280;40903;51.638;7.528;2024-02-26T05:48:46;99482.91;;;5.18;100.00
55010;BME280;40903;51.638;7.528;2024-02-26T05:51:12;99494.78;;;5.17;100.00
55010;BME280;40903;51.638;7.528;2024-02-26T05:53:38;99502.63;;;5.19;100.00
55010;BME280;40903;51.638;7.528;2024-02-26T05:56:03;99509.63;;;5.20;100.00
55010;BME280;40903;51.638;7.528;2024-02-26T05:58:29;99506.38;;;5.23;100.00
55010;BME280;40903;51.638;7.528;2024-02-26T06:00:54;99507.19;;;5.23;100.00
55010;BME280;40903;51.638;7.528;2024-02-26T06:03:20;99509.88;;;5.23;100.00
55010;BME280;40903;51.638;7.528;2024-02-26T06:05:46;99517.16;;;5.23;100.00
55010;BME280;40903;51.638;7.528;2024-02-26T06:08:11;99521.47;;;5.24;100.00
55010;BME280;40903;51.638;7.528;2024-02-26T06:10:37;99526.09;;;5.23;100.00
55010;BME280;40903;51.638;7.528;2024-02-26T06:13:04;99528.81;;;5.23;100.00
55010;BME280;40903;51.638;7.528;2024-02-26T06:15:32;99523.09;;;5.25;100.00
55010;BME280;40903;51.638;7.528;2024-02-26T06:17:58;99524.44;;;5.27;100.00
55010;BME280;40903;51.638;7.528;2024-02-26T06:20:24;99536.84;;;5.28;100.00
55010;BME280;40903;51.638;7.528;2024-02-26T06:22:49;99542.50;;;5.32;100.00
55010;BME280;40903;51.638;7.528;2024-02-26T06:25:15;99544.38;;;5.31;100.00
55010;BME280;40903;51.638;7.528;2024-02-26T06:27:40;99542.78;;;5.30;100.00
55010;BME280;40903;51.638;7.528;2024-02-26T06:30:06;99546.31;;;5.26;100.00
55010;BME280;40903;51.638;7.528;2024-02-26T06:32:32;99545.00;;;5.23;100.00
55010;BME280;40903;51.638;7.528;2024-02-26T06:34:57;99550.41;;;5.23;100.00
55010;BME280;40903;51.638;7.528;2024-02-26T06:37:23;99545.81;;;5.24;100.00
55010;BME280;40903;51.638;7.528;2024-02-26T06:39:48;99547.41;;;5.25;100.00
55010;BME280;40903;51.638;7.528;2024-02-26T06:42:14;99545.78;;;5.29;100.00
55010;BME280;40903;51.638;7.528;2024-02-26T06:44:39;99556.28;;;5.30;100.00
55010;BME280;40903;51.638;7.528;2024-02-26T06:47:05;99547.91;;;5.32;100.00
55010;BME280;40903;51.638;7.528;2024-02-26T06:49:31;99547.91;;;5.32;100.00
55010;BME280;40903;51.638;7.528;2024-02-26T06:51:58;99545.47;;;5.30;100.00
55010;BME280;40903;51.638;7.528;2024-02-26T06:54:24;99543.28;;;5.32;100.00
55010;BME280;40903;51.638;7.528;2024-02-26T06:56:49;99543.00;;;5.34;100.00
55010;BME280;40903;51.638;7.528;2024-02-26T06:59:15;99542.44;;;5.37;100.00
55010;BME280;40903;51.638;7.528;2024-02-26T07:01:41;99546.25;;;5.36;100.00
55010;BME280;40903;51.638;7.528;2024-02-26T07:04:07;99553.81;;;5.34;100.00
55010;BME280;40903;51.638;7.528;2024-02-26T07:06:32;99551.94;;;5.34;100.00
55010;BME280;40903;51.638;7.528;2024-02-26T07:08:58;99547.31;;;5.35;100.00
55010;BME280;40903;51.638;7.528;2024-02-26T07:11:23;99549.97;;;5.40;100.00
55010;BME280;40903;51.638;7.528;2024-02-26T07:13:49;99558.13;;;5.35;100.00
55010;BME280;40903;51.638;7.528;2024-02-26T07:16:15;99555.97;;;5.37;100.00
55010;BME280;40903;51.638;7.528;2024-02-26T07:18:40;99555.97;;;5.37;100.00
55010;BME280;40903;51.638;7.528;2024-02-26T07:21:06;99557.22;;;5.44;100.00
55010;BME280;40903;51.638;7.528;2024-02-26T07:23:32;99561.59;;;5.40;100.00
55010;BME280;40903;51.638;7.528;2024-02-26T07:25:57;99568.63;;;5.41;100.00
55010;BME280;40903;51.638;7.528;2024-02-26T07:28:24;99564.31;;;5.40;100.00
55010;BME280;40903;51.638;7.528;2024-02-26T07:30:50;99568.03;;;5.44;100.00
55010;BME280;40903;51.638;7.528;2024-02-26T07:33:15;99573.44;;;5.49;100.00
55010;BME280;40903;51.638;7.528;2024-02-26T07:35:41;99565.31;;;5.49;100.00
55010;BME280;40903;51.638;7.528;2024-02-26T07:38:06;99570.16;;;5.52;100.00
55010;BME280;40903;51.638;7.528;2024-02-26T07:40:32;99567.38;;;5.57;100.00
55010;BME280;40903;51.638;7.528;2024-02-26T07:42:57;99574.91;;;5.60;100.00
55010;BME280;40903;51.638;7.528;2024-02-26T07:45:23;99578.91;;;5.68;100.00
55010;BME280;40903;51.638;7.528;2024-02-26T07:47:48;99581.34;;;5.69;100.00
55010;BME280;40903;51.638;7.528;2024-02-26T07:50:14;99581.78;;;5.76;100.00
55010;BME280;40903;51.638;7.528;2024-02-26T07:52:40;99586.69;;;5.79;100.00
55010;BME280;40903;51.638;7.528;2024-02-26T07:55:06;99596.91;;;5.82;100.00
55010;BME280;40903;51.638;7.528;2024-02-26T07:57:35;99589.31;;;5.84;100.00
55010;BME280;40903;51.638;7.528;2024-02-26T08:00:02;99594.72;;;5.84;100.00
55010;BME280;40903;51.638;7.528;2024-02-26T08:02:28;99600.38;;;5.87;100.00
55010;BME280;40903;51.638;7.528;2024-02-26T08:04:53;99609.03;;;5.84;100.00
55010;BME280;40903;51.638;7.528;2024-02-26T08:07:19;99601.16;;;5.88;100.00
55010;BME280;40903;51.638;7.528;2024-02-26T08:09:45;99606.00;;;5.91;100.00
55010;BME280;40903;51.638;7.528;2024-02-26T08:12:11;99614.88;;;5.96;100.00
55010;BME280;40903;51.638;7.528;2024-02-26T08:14:37;99611.06;;;5.97;100.00
55010;BME280;40903;51.638;7.528;2024-02-26T08:17:02;99619.94;;;6.03;100.00
55010;BME280;40903;51.638;7.528;2024-02-26T08:19:31;99614.53;;;6.03;100.00
55010;BME280;40903;51.638;7.528;2024-02-26T08:21:56;99620.97;;;6.07;100.00
55010;BME280;40903;51.638;7.528;2024-02-26T08:24:23;99629.09;;;6.07;100.00
55010;BME280;40903;51.638;7.528;2024-02-26T08:26:48;99630.69;;;6.08;100.00
55010;BME280;40903;51.638;7.528;2024-02-26T08:29:14;99625.25;;;6.13;100.00
55010;BME280;40903;51.638;7.528;2024-02-26T08:31:39;99628.19;;;6.16;100.00
55010;BME280;40903;51.638;7.528;2024-02-26T08:34:05;99638.13;;;6.21;100.00
55010;BME280;40903;51.638;7.528;2024-02-26T08:36:31;99630.25;;;6.24;100.00
55010;BME280;40903;51.638;7.528;2024-02-26T08:38:57;99635.41;;;6.26;100.00
55010;BME280;40903;51.638;7.528;2024-02-26T08:41:22;99624.25;;;6.27;100.00
55010;BME280;40903;51.638;7.528;2024-02-26T08:43:48;99631.25;;;6.33;100.00
55010;BME280;40903;51.638;7.528;2024-02-26T08:46:14;99632.84;;;6.34;100.00
55010;BME280;40903;51.638;7.528;2024-02-26T08:48:40;99637.44;;;6.34;100.00
55010;BME280;40903;51.638;7.528;2024-02-26T08:51:09;99630.94;;;6.35;100.00
55010;BME280;40903;51.638;7.528;2024-02-26T08:53:35;99637.41;;;6.39;100.00
55010;BME280;40903;51.638;7.528;2024-02-26T08:56:01;99632.84;;;6.34;100.00
55010;BME280;40903;51.638;7.528;2024-02-26T08:58:29;99640.66;;;6.36;100.00
55010;BME280;40903;51.638;7.528;2024-02-26T09:00:55;99640.31;;;6.42;100.00
55010;BME280;40903;51.638;7.528;2024-02-26T09:03:21;99640.56;;;6.46;100.00
55010;BME280;40903;51.638;7.528;2024-02-26T09:05:46;99650.53;;;6.50;100.00
55010;BME280;40903;51.638;7.528;2024-02-26T09:08:12;99652.94;;;6.52;100.00
55010;BME280;40903;51.638;7.528;2024-02-26T09:10:38;99647.47;;;6.57;100.00
55010;BME280;40903;51.638;7.528;2024-02-26T09:13:04;99648.78;;;6.59;100.00
55010;BME280;40903;51.638;7.528;2024-02-26T09:15:29;99640.66;;;6.59;100.00
55010;BME280;40903;51.638;7.528;2024-02-26T09:17:55;99649.00;;;6.63;100.00
55010;BME280;40903;51.638;7.528;2024-02-26T09:20:21;99644.84;;;6.70;100.00
55010;BME280;40903;51.638;7.528;2024-02-26T09:22:47;99645.34;;;6.72;100.00
55010;BME280;40903;51.638;7.528;2024-02-26T09:25:13;99648.28;;;6.76;100.00
55010;BME280;40903;51.638;7.528;2024-02-26T09:27:41;99650.06;;;6.85;100.00
55010;BME280;40903;51.638;7.528;2024-02-26T09:30:09;99649.47;;;6.88;100.00
55010;BME280;40903;51.638;7.528;2024-02-26T09:32:35;99660.47;;;6.97;100.00
55010;BME280;40903;51.638;7.528;2024-02-26T09:35:01;99666.34;;;7.04;100.00
55010;BME280;40903;51.638;7.528;2024-02-26T09:37:27;99671.63;;;7.14;100.00
55010;BME280;40903;51.638;7.528;2024-02-26T09:39:53;99672.66;;;7.18;100.00
55010;BME280;40903;51.638;7.528;2024-02-26T09:42:19;99682.81;;;7.26;100.00
55010;BME280;40903;51.638;7.528;2024-02-26T09:44:45;99689.19;;;7.35;100.00
55010;BME280;40903;51.638;7.528;2024-02-26T09:47:11;99682.06;;;7.39;100.00
55010;BME280;40903;51.638;7.528;2024-02-26T09:49:38;99687.44;;;7.44;100.00
55010;BME280;40903;51.638;7.528;2024-02-26T09:52:04;99687.44;;;7.44;100.00
55010;BME280;40903;51.638;7.528;2024-02-26T09:54:31;99695.28;;;7.45;100.00
55010;BME280;40903;51.638;7.528;2024-02-26T09:57:00;99686.03;;;7.46;100.00
55010;BME280;40903;51.638;7.528;2024-02-26T09:59:29;99691.41;;;7.51;100.00
55010;BME280;40903;51.638;7.528;2024-02-26T10:02:01;99687.34;;;7.49;100.00
55010;BME280;40903;51.638;7.528;2024-02-26T10:04:28;99698.34;;;7.57;100.00
55010;BME280;40903;51.638;7.528;2024-02-26T10:06:54;99693.03;;;7.66;100.00
55010;BME280;40903;51.638;7.528;2024-02-26T10:09:20;99697.97;;;7.64;100.00
55010;BME280;40903;51.638;7.528;2024-02-26T10:11:48;99697.97;;;7.64;100.00
55010;BME280;40903;51.638;7.528;2024-02-26T10:14:15;99694.44;;;7.63;100.00
55010;BME280;40903;51.638;7.528;2024-02-26T10:16:42;99694.44;;;7.63;100.00
55010;BME280;40903;51.638;7.528;2024-02-26T10:19:08;99692.81;;;7.62;100.00
55010;BME280;40903;51.638;7.528;2024-02-26T10:21:36;99694.38;;;7.68;100.00
55010;BME280;40903;51.638;7.528;2024-02-26T10:24:01;99697.22;;;7.76;100.00
55010;BME280;40903;51.638;7.528;2024-02-26T10:26:27;99687.28;;;7.85;100.00
55010;BME280;40903;51.638;7.528;2024-02-26T10:28:52;99701.72;;;7.81;100.00
55010;BME280;40903;51.638;7.528;2024-02-26T10:31:18;99707.38;;;7.84;100.00
55010;BME280;40903;51.638;7.528;2024-02-26T10:33:44;99710.78;;;7.76;100.00
55010;BME280;40903;51.638;7.528;2024-02-26T10:36:10;99709.38;;;7.79;100.00
55010;BME280;40903;51.638;7.528;2024-02-26T10:38:36;99716.22;;;7.76;100.00
55010;BME280;40903;51.638;7.528;2024-02-26T10:41:03;99723.44;;;7.81;100.00
55010;BME280;40903;51.638;7.528;2024-02-26T10:43:29;99732.91;;;7.83;100.00
55010;BME280;40903;51.638;7.528;2024-02-26T10:45:55;99735.63;;;7.83;100.00
55010;BME280;40903;51.638;7.528;2024-02-26T10:48:21;99745.50;;;7.93;100.00
55010;BME280;40903;51.638;7.528;2024-02-26T10:50:47;99743.09;;;7.91;100.00
55010;BME280;40903;51.638;7.528;2024-02-26T10:53:17;99749.63;;;7.90;100.00
55010;BME280;40903;51.638;7.528;2024-02-26T10:55:48;99749.03;;;7.93;100.00
55010;BME280;40903;51.638;7.528;2024-02-26T10:58:14;99750.41;;;7.91;100.00
55010;BME280;40903;51.638;7.528;2024-02-26T11:00:42;99765.72;;;8.00;100.00
55010;BME280;40903;51.638;7.528;2024-02-26T11:03:09;99759.00;;;7.98;100.00
55010;BME280;40903;51.638;7.528;2024-02-26T11:05:36;99757.69;;;7.95;100.00
55010;BME280;40903;51.638;7.528;2024-02-26T11:08:05;99756.28;;;7.98;100.00
55010;BME280;40903;51.638;7.528;2024-02-26T11:10:31;99763.63;;;7.97;100.00
55010;BME280;40903;51.638;7.528;2024-02-26T11:12:59;99762.81;;;7.97;100.00
55010;BME280;40903;51.638;7.528;2024-02-26T11:15:25;99768.94;;;8.02;100.00
55010;BME280;40903;51.638;7.528;2024-02-26T11:17:52;99768.44;;;8.00;100.00
55010;BME280;40903;51.638;7.528;2024-02-26T11:20:19;99769.03;;;7.97;100.00
55010;BME280;40903;51.638;7.528;2024-02-26T11:22:45;99778.28;;;7.96;100.00
55010;BME280;40903;51.638;7.528;2024-02-26T11:25:11;99770.75;;;7.93;100.00
55010;BME280;40903;51.638;7.528;2024-02-26T11:27:43;99770.75;;;7.93;100.00
55010;BME280;40903;51.638;7.528;2024-02-26T11:30:12;99770.53;;;7.90;100.00
55010;BME280;40903;51.638;7.528;2024-02-26T11:32:38;99780.00;;;7.92;100.00
55010;BME280;40903;51.638;7.528;2024-02-26T11:35:07;99786.81;;;7.90;100.00
55010;BME280;40903;51.638;7.528;2024-02-26T11:37:35;99786.81;;;7.90;100.00
55010;BME280;40903;51.638;7.528;2024-02-26T11:40:01;99788.94;;;7.93;100.00
55010;BME280;40903;51.638;7.528;2024-02-26T11:42:27;99787.19;;;7.83;100.00
55010;BME280;40903;51.638;7.528;2024-02-26T11:44:55;99788.66;;;7.94;100.00
55010;BME280;40903;51.638;7.528;2024-02-26T11:47:27;99777.94;;;7.84;100.00
55010;BME280;40903;51.638;7.528;2024-02-26T11:49:52;99787.09;;;7.88;100.00
55010;BME280;40903;51.638;7.528;2024-02-26T11:52:18;99777.28;;;7.92;100.00
55010;BME280;40903;51.638;7.528;2024-02-26T11:54:50;99785.19;;;7.89;100.00
55010;BME280;40903;51.638;7.528;2024-02-26T11:59:49;99792.84;;;7.87;100.00
55010;BME280;40903;51.638;7.528;2024-02-26T12:02:47;99792.25;;;7.90;100.00
55010;BME280;40903;51.638;7.528;2024-02-26T12:05:17;99798.53;;;7.85;100.00
55010;BME280;40903;51.638;7.528;2024-02-26T12:08:06;99803.38;;;7.88;100.00
55010;BME280;40903;51.638;7.528;2024-02-26T12:10:35;99811.09;;;7.81;100.00
55010;BME280;40903;51.638;7.528;2024-02-26T12:13:16;99820.84;;;7.82;100.00
55010;BME280;40903;51.638;7.528;2024-02-26T12:15:55;99821.44;;;7.79;100.00
55010;BME280;40903;51.638;7.528;2024-02-26T12:18:22;99823.06;;;7.80;100.00
55010;BME280;40903;51.638;7.528;2024-02-26T12:21:01;99821.66;;;7.83;100.00
55010;BME280;40903;51.638;7.528;2024-02-26T12:23:27;99827.47;;;7.76;100.00
55010;BME280;40903;51.638;7.528;2024-02-26T12:25:54;99828.75;;;7.79;100.00
55010;BME280;40903;51.638;7.528;2024-02-26T12:28:24;99840.94;;;7.81;100.00
55010;BME280;40903;51.638;7.528;2024-02-26T12:30:52;99838.00;;;7.78;100.00
55010;BME280;40903;51.638;7.528;2024-02-26T12:33:18;99841.97;;;7.85;100.00
55010;BME280;40903;51.638;7.528;2024-02-26T12:35:44;99839.41;;;7.94;100.00
55010;BME280;40903;51.638;7.528;2024-02-26T12:38:14;99837.59;;;7.89;100.00
55010;BME280;40903;51.638;7.528;2024-02-26T12:40:40;99843.53;;;7.91;100.00
55010;BME280;40903;51.638;7.528;2024-02-26T12:43:05;99843.53;;;7.91;100.00
55010;BME280;40903;51.638;7.528;2024-02-26T12:45:33;99838.47;;;7.85;100.00
55010;BME280;40903;51.638;7.528;2024-02-26T12:47:59;99842.19;;;7.89;100.00
55010;BME280;40903;51.638;7.528;2024-02-26T12:50:24;99827.53;;;7.90;100.00
55010;BME280;40903;51.638;7.528;2024-02-26T12:52:51;99826.66;;;7.94;100.00
55010;BME280;40903;51.638;7.528;2024-02-26T12:55:18;99831.56;;;7.92;100.00
55010;BME280;40903;51.638;7.528;2024-02-26T12:57:46;99829.94;;;7.91;100.00
55010;BME280;40903;51.638;7.528;2024-02-26T13:00:25;99820.91;;;7.96;100.00
55010;BME280;40903;51.638;7.528;2024-02-26T13:02:51;99829.44;;;7.89;100.00
55010;BME280;40903;51.638;7.528;2024-02-26T13:05:18;99827.75;;;7.93;100.00